Time;durP1;ratioP1;P1;durP2;ratioP2;P2;SDS_P1;SDS_P2;PMS_P1;PMS_P2;Temp;Humidity;BMP_temperature;BMP_pressure;BME280_temperature;BME280_humidity;BME280_pressure;Samples;Min_cycle;Max_cycle;Signal;HPM_P1;HPM_P2
2022/11/17 00:01:06;;;;;;;3.07;1.70;;;9.70;99.90;;;;;;5091615;28;20538;-83
2022/11/17 00:03:31;;;;;;;7.90;1.92;;;9.60;99.90;;;;;;5091761;28;20051;-74
2022/11/17 00:06:05;;;;;;;4.97;1.37;;;9.60;99.90;;;;;;5091827;28;20028;-84
2022/11/17 00:08:31;;;;;;;7.78;2.90;;;9.60;99.90;;;;;;5090590;28;20032;-75
2022/11/17 00:11:01;;;;;;;3.08;1.45;;;9.60;99.90;;;;;;5092766;28;20419;-75
2022/11/17 00:16:13;;;;;;;5.35;2.13;;;9.60;99.90;;;;;;5092251;28;20386;-77
2022/11/17 00:21:25;;;;;;;5.45;2.00;;;9.70;99.90;;;;;;5092289;28;20030;-74
2022/11/17 00:23:52;;;;;;;3.53;1.75;;;9.60;99.90;;;;;;5088948;28;20028;-75
2022/11/17 00:26:20;;;;;;;5.93;2.35;;;9.60;99.90;;;;;;5091165;28;20055;-75
2022/11/17 00:28:46;;;;;;;7.78;2.05;;;9.60;99.90;;;;;;5091772;28;20440;-74
2022/11/17 00:34:05;;;;;;;3.70;1.95;;;9.60;99.90;;;;;;5092997;28;20523;-76
2022/11/17 00:36:39;;;;;;;5.65;1.90;;;9.70;99.90;;;;;;5091561;28;20028;-75
2022/11/17 00:39:06;;;;;;;4.57;1.52;;;9.70;99.90;;;;;;5087192;28;20032;-77
2022/11/17 00:41:32;;;;;;;4.32;2.58;;;9.70;99.90;;;;;;5092162;28;20024;-84
2022/11/17 00:43:58;;;;;;;2.53;1.00;;;9.60;99.90;;;;;;5092718;28;20035;-75
2022/11/17 00:46:23;;;;;;;4.57;2.00;;;9.70;99.90;;;;;;5092104;28;20033;-75
2022/11/17 00:48:49;;;;;;;8.73;2.33;;;9.60;99.90;;;;;;5090667;28;20089;-77
2022/11/17 00:51:15;;;;;;;2.50;1.57;;;9.60;99.90;;;;;;5088967;28;20032;-75
2022/11/17 00:53:40;;;;;;;4.47;2.17;;;9.60;99.90;;;;;;5094704;28;20030;-75
2022/11/17 00:56:06;;;;;;;7.70;2.33;;;9.70;99.90;;;;;;5096149;28;20032;-75
2022/11/17 00:58:34;;;;;;;6.67;2.50;;;9.70;99.90;;;;;;5095102;28;20093;-75
2022/11/17 01:01:00;;;;;;;14.57;2.85;;;9.70;99.90;;;;;;5089189;28;20048;-75
2022/11/17 01:03:25;;;;;;;10.07;2.63;;;9.70;99.90;;;;;;5093909;28;20473;-74
2022/11/17 01:05:51;;;;;;;5.00;2.07;;;9.70;99.90;;;;;;5089749;28;20078;-75
2022/11/17 01:08:17;;;;;;;9.47;3.10;;;9.70;99.90;;;;;;5093790;28;20020;-74
2022/11/17 01:10:42;;;;;;;3.77;2.13;;;9.70;99.90;;;;;;5093755;28;20475;-75
2022/11/17 01:13:08;;;;;;;3.05;2.55;;;9.70;99.90;;;;;;5095421;28;20031;-74
2022/11/17 01:15:34;;;;;;;3.47;1.95;;;9.70;99.90;;;;;;5090609;28;20035;-74
2022/11/17 01:18:00;;;;;;;7.72;2.75;;;9.70;99.90;;;;;;5088411;28;20027;-75
2022/11/17 01:20:26;;;;;;;2.30;1.77;;;9.70;99.90;;;;;;5092108;28;20158;-79
2022/11/17 01:22:54;;;;;;;4.43;2.13;;;9.70;99.90;;;;;;5095490;28;20032;-75
2022/11/17 01:25:20;;;;;;;3.78;2.00;;;9.70;99.90;;;;;;5095396;28;20418;-75
2022/11/17 01:27:47;;;;;;;3.40;2.57;;;9.70;99.90;;;;;;5095483;28;20040;-76
2022/11/17 01:30:13;;;;;;;7.43;2.60;;;9.70;99.90;;;;;;5094896;28;20036;-76
2022/11/17 01:32:39;;;;;;;7.78;3.00;;;9.70;99.90;;;;;;5094546;28;20323;-77
2022/11/17 01:35:06;;;;;;;12.80;3.07;;;9.70;99.90;;;;;;5093960;28;20032;-76
2022/11/17 01:37:31;;;;;;;3.70;2.55;;;9.70;99.90;;;;;;5094910;28;20023;-77
2022/11/17 01:39:57;;;;;;;3.00;2.37;;;9.70;99.90;;;;;;5093175;28;20115;-76
2022/11/17 01:42:25;;;;;;;9.07;3.23;;;9.70;99.90;;;;;;5094719;28;20028;-77
2022/11/17 01:45:01;;;;;;;4.88;2.88;;;9.70;99.90;;;;;;5092677;28;20028;-74
2022/11/17 01:47:39;;;;;;;3.55;2.08;;;9.70;99.90;;;;;;5089164;28;20035;-76
2022/11/17 01:50:20;;;;;;;2.40;1.73;;;9.80;99.90;;;;;;5090690;28;20399;-76
2022/11/17 01:52:48;;;;;;;2.33;2.08;;;9.80;99.90;;;;;;5094691;28;20036;-78
2022/11/17 01:55:14;;;;;;;4.05;2.50;;;9.80;99.90;;;;;;5094578;28;20027;-78
2022/11/17 01:57:53;;;;;;;4.23;1.93;;;9.80;99.90;;;;;;5090643;28;20110;-76
2022/11/17 02:00:18;;;;;;;2.22;0.93;;;9.80;99.90;;;;;;5091232;28;20031;-77
2022/11/17 02:02:46;;;;;;;3.90;2.03;;;9.80;99.90;;;;;;5094718;28;20047;-77
2022/11/17 02:05:21;;;;;;;3.58;1.73;;;9.90;99.90;;;;;;5092087;28;20429;-76
2022/11/17 02:07:49;;;;;;;7.45;1.85;;;9.90;99.90;;;;;;5093300;28;20032;-75
2022/11/17 02:10:15;;;;;;;2.28;1.15;;;9.90;99.90;;;;;;5093164;28;20055;-87
2022/11/17 02:12:42;;;;;;;2.53;1.10;;;9.90;99.90;;;;;;5086288;28;20024;-75
2022/11/17 02:15:08;;;;;;;;;;;9.90;99.90;;;;;;5091283;28;20032;-76
2022/11/17 02:17:40;;;;;;;6.88;2.03;;;9.90;99.90;;;;;;5093587;28;20222;-76
2022/11/17 02:20:37;;;;;;;7.35;1.90;;;9.90;99.90;;;;;;5088358;28;20152;-76
2022/11/17 02:23:33;;;;;;;3.90;1.58;;;9.90;99.90;;;;;;5092644;28;20342;-77
2022/11/17 02:26:24;;;;;;;1.73;1.30;;;9.90;99.90;;;;;;5093292;28;20304;-77
2022/11/17 02:29:08;;;;;;;9.43;2.05;;;10.00;99.90;;;;;;5093903;28;20032;-74
2022/11/17 02:32:01;;;;;;;3.22;2.15;;;10.00;99.90;;;;;;5093378;28;20024;-74
2022/11/17 02:34:46;;;;;;;6.20;1.67;;;10.00;99.90;;;;;;5092500;28;20450;-79
2022/11/17 02:37:36;;;;;;;2.72;1.33;;;10.10;99.90;;;;;;5087320;28;20074;-75
2022/11/17 02:40:05;;;;;;;2.05;1.45;;;10.10;99.90;;;;;;5092114;28;20024;-76
2022/11/17 02:45:59;;;;;;;8.95;1.98;;;10.10;99.90;;;;;;5093581;28;20093;-75
2022/11/17 02:48:31;;;;;;;1.73;1.08;;;10.10;99.90;;;;;;5087590;28;20051;-76
2022/11/17 02:50:58;;;;;;;2.47;1.67;;;10.20;99.90;;;;;;5082056;28;20062;-76
2022/11/17 02:53:25;;;;;;;;;;;10.10;99.90;;;;;;5087149;28;20036;-76
2022/11/17 02:55:52;;;;;;;3.25;1.90;;;10.10;99.90;;;;;;5085623;28;19995;-76
2022/11/17 02:58:19;;;;;;;2.95;1.75;;;10.20;99.90;;;;;;5090184;28;20051;-80
2022/11/17 03:01:06;;;;;;;1.83;1.60;;;10.20;99.90;;;;;;5093511;28;20020;-76
2022/11/17 03:03:58;;;;;;;5.50;1.65;;;10.20;99.90;;;;;;5092784;28;20051;-75
2022/11/17 03:07:14;;;;;;;4.10;1.80;;;10.20;99.90;;;;;;5093761;28;20036;-87
2022/11/17 03:09:43;;;;;;;1.42;1.00;;;10.20;99.90;;;;;;5050212;28;20029;-81
2022/11/17 03:12:42;;;;;;;3.28;1.50;;;10.20;99.90;;;;;;5050655;28;20025;-77
2022/11/17 03:15:20;;;;;;;3.55;1.70;;;10.20;99.90;;;;;;5070806;28;20315;-79
2022/11/17 03:18:16;;;;;;;4.07;1.90;;;10.20;99.90;;;;;;5086430;28;20080;-75
2022/11/17 03:21:13;;;;;;;4.57;1.63;;;10.20;99.90;;;;;;5094224;28;20491;-78
2022/11/17 03:23:56;;;;;;;4.68;1.27;;;10.20;99.90;;;;;;5093881;28;20016;-76
2022/11/17 03:26:29;;;;;;;4.60;1.80;;;10.20;99.90;;;;;;5084353;28;20032;-75
2022/11/17 03:28:57;;;;;;;3.45;1.20;;;10.30;99.90;;;;;;5092253;28;20023;-76
2022/11/17 03:31:26;;;;;;;3.70;1.42;;;10.20;99.90;;;;;;5090234;28;20073;-75
2022/11/17 03:33:53;;;;;;;3.15;1.65;;;10.30;99.90;;;;;;5093078;28;20050;-77
2022/11/17 03:36:27;;;;;;;8.40;1.90;;;10.30;99.90;;;;;;5089438;28;20055;-83
2022/11/17 03:39:05;;;;;;;2.90;1.67;;;10.20;99.90;;;;;;5091353;28;20323;-76
2022/11/17 03:41:35;;;;;;;4.82;1.75;;;10.20;99.90;;;;;;5093961;28;20032;-76
2022/11/17 03:44:04;;;;;;;2.38;1.13;;;10.30;99.90;;;;;;5093154;28;20020;-77
2022/11/17 03:46:31;;;;;;;1.60;1.27;;;10.30;99.90;;;;;;5090704;28;20036;-78
2022/11/17 03:49:01;;;;;;;;;;;10.30;99.90;;;;;;5091930;28;20032;-75
2022/11/17 03:51:31;;;;;;;5.13;1.08;;;10.30;99.90;;;;;;5092605;28;19974;-76
2022/11/17 03:53:58;;;;;;;5.05;1.55;;;10.30;99.90;;;;;;5093592;28;20031;-76
2022/11/17 03:56:36;;;;;;;4.78;1.42;;;10.30;99.90;;;;;;5091428;28;20028;-76
2022/11/17 03:59:22;;;;;;;6.97;1.70;;;10.30;99.90;;;;;;5092717;28;20417;-78
2022/11/17 04:01:48;;;;;;;2.03;1.50;;;10.30;99.90;;;;;;5088179;28;20130;-75
2022/11/17 04:04:19;;;;;;;1.77;1.27;;;10.40;99.90;;;;;;5092951;28;20119;-77
2022/11/17 04:06:45;;;;;;;4.55;1.75;;;10.40;99.90;;;;;;5091912;28;20084;-76
2022/11/17 04:09:11;;;;;;;1.98;1.33;;;10.40;99.90;;;;;;5092811;28;20039;-75
2022/11/17 04:17:05;;;;;;;3.03;1.38;;;10.40;99.90;;;;;;5091446;28;20031;-75
2022/11/17 04:19:31;;;;;;;1.43;0.83;;;10.40;99.90;;;;;;5092482;28;20020;-78
2022/11/17 04:21:56;;;;;;;1.88;1.10;;;10.40;99.90;;;;;;5090348;28;20020;-75
2022/11/17 04:24:22;;;;;;;2.70;1.00;;;10.40;99.90;;;;;;5093588;28;20016;-77
2022/11/17 04:29:33;;;;;;;3.15;1.50;;;10.50;99.90;;;;;;5097261;28;20327;-78
2022/11/17 04:31:59;;;;;;;;;;;10.50;99.90;;;;;;5093909;28;20020;-77
2022/11/17 04:34:25;;;;;;;6.60;1.97;;;10.50;99.90;;;;;;5096044;28;19973;-75
2022/11/17 04:36:50;;;;;;;1.33;1.23;;;10.50;99.90;;;;;;5089111;28;20056;-76
2022/11/17 04:39:16;;;;;;;1.97;1.20;;;10.50;99.90;;;;;;5094329;28;20042;-78
2022/11/17 04:42:02;;;;;;;7.33;1.40;;;10.50;99.90;;;;;;5096720;28;20502;-76
2022/11/17 04:44:29;;;;;;;1.70;1.37;;;10.50;99.90;;;;;;5094839;28;20414;-76
2022/11/17 04:46:56;;;;;;;5.30;1.60;;;10.50;99.90;;;;;;5096031;28;20028;-79
2022/11/17 04:49:23;;;;;;;4.18;1.65;;;10.50;99.90;;;;;;5095308;28;20032;-77
2022/11/17 04:51:50;;;;;;;3.05;1.05;;;10.50;99.90;;;;;;5093056;28;20040;-80
2022/11/17 04:54:18;;;;;;;1.00;0.90;;;10.50;99.90;;;;;;5095359;28;20024;-77
2022/11/17 04:56:44;;;;;;;3.15;1.42;;;10.40;99.90;;;;;;5096046;28;20035;-78
2022/11/17 04:59:10;;;;;;;3.70;1.38;;;10.40;99.90;;;;;;5095706;28;20031;-85
2022/11/17 05:01:36;;;;;;;1.27;0.90;;;10.50;99.90;;;;;;5091129;28;20028;-86
2022/11/17 05:04:05;;;;;;;3.63;1.30;;;10.50;99.90;;;;;;5089600;28;20044;-81
2022/11/17 05:06:36;;;;;;;5.30;1.63;;;10.50;99.90;;;;;;5090190;28;20485;-82
2022/11/17 05:09:06;;;;;;;1.98;1.00;;;10.50;99.90;;;;;;5095692;28;20441;-78
2022/11/17 05:14:20;;;;;;;2.20;0.95;;;10.50;99.90;;;;;;5092279;28;20514;-76
2022/11/17 05:17:04;;;;;;;1.58;1.15;;;10.50;99.90;;;;;;5091709;28;20028;-79
2022/11/17 05:19:32;;;;;;;1.50;1.40;;;10.40;99.90;;;;;;5090832;28;20411;-77
2022/11/17 05:21:58;;;;;;;1.35;1.10;;;10.40;99.90;;;;;;5091316;28;20028;-79
2022/11/17 05:24:25;;;;;;;2.27;1.10;;;10.40;99.90;;;;;;5095302;28;20406;-79
2022/11/17 05:26:51;;;;;;;;;;;10.40;99.90;;;;;;5095976;28;20635;-77
2022/11/17 05:29:19;;;;;;;1.85;1.40;;;10.40;99.90;;;;;;5087848;28;20011;-78
2022/11/17 05:31:45;;;;;;;3.88;1.30;;;10.40;99.90;;;;;;5094093;28;20372;-80
2022/11/17 05:34:12;;;;;;;2.60;1.73;;;10.40;99.90;;;;;;5095365;28;20028;-77
2022/11/17 05:36:39;;;;;;;4.72;1.40;;;10.40;99.90;;;;;;5094933;28;20418;-76
2022/11/17 05:39:06;;;;;;;1.45;1.35;;;10.40;99.90;;;;;;5098789;28;20032;-76
2022/11/17 05:41:31;;;;;;;1.92;1.35;;;10.30;99.90;;;;;;5089603;28;20095;-78
2022/11/17 05:43:58;;;;;;;3.97;1.23;;;10.30;99.90;;;;;;5095484;28;20153;-79
2022/11/17 05:46:24;;;;;;;2.43;1.10;;;10.30;99.90;;;;;;5092711;28;20024;-78
2022/11/17 05:48:50;;;;;;;2.97;1.38;;;10.30;99.90;;;;;;5091756;28;20438;-81
2022/11/17 05:51:18;;;;;;;1.98;1.02;;;10.30;99.90;;;;;;5093039;28;20028;-81
2022/11/17 05:53:45;;;;;;;1.85;1.25;;;10.30;99.90;;;;;;5093119;28;20024;-74
2022/11/17 05:56:38;;;;;;;2.70;1.58;;;10.30;99.90;;;;;;5093414;28;20036;-79
2022/11/17 05:59:27;;;;;;;4.05;1.27;;;10.30;99.90;;;;;;5094550;28;20031;-84
2022/11/17 06:02:09;;;;;;;3.95;1.65;;;10.30;99.90;;;;;;5094225;28;20055;-76
2022/11/17 06:04:36;;;;;;;4.03;1.92;;;10.30;99.90;;;;;;5088649;28;20031;-77
2022/11/17 06:07:02;;;;;;;2.55;1.90;;;10.30;99.90;;;;;;5093970;28;20024;-80
2022/11/17 06:09:32;;;;;;;2.20;1.10;;;10.30;99.90;;;;;;5095002;28;20028;-74
2022/11/17 06:11:58;;;;;;;2.50;1.73;;;10.30;99.90;;;;;;5094310;28;20024;-77
2022/11/17 06:14:23;;;;;;;2.27;1.40;;;10.30;99.90;;;;;;5094816;28;20039;-76
2022/11/17 06:16:52;;;;;;;2.00;1.60;;;10.30;99.90;;;;;;5094328;28;20032;-77
2022/11/17 06:19:23;;;;;;;1.85;1.70;;;10.30;99.90;;;;;;5094150;28;20025;-78
2022/11/17 06:21:50;;;;;;;3.03;1.52;;;10.30;99.90;;;;;;5095389;28;20100;-75
2022/11/17 06:24:16;;;;;;;4.82;1.60;;;10.30;99.90;;;;;;5094287;28;20016;-77
2022/11/17 06:26:42;;;;;;;2.05;1.63;;;10.30;99.90;;;;;;5095602;28;20032;-75
2022/11/17 06:29:11;;;;;;;5.13;1.70;;;10.30;99.90;;;;;;5092999;28;20027;-78
2022/11/17 06:31:37;;;;;;;4.40;2.03;;;10.30;99.90;;;;;;5095609;28;20039;-75
2022/11/17 06:34:04;;;;;;;1.25;1.05;;;10.30;99.90;;;;;;5095073;28;20028;-76
2022/11/17 06:36:30;;;;;;;2.08;1.15;;;10.30;99.90;;;;;;5089349;28;20040;-75
2022/11/17 06:38:56;;;;;;;5.82;0.90;;;10.30;99.90;;;;;;5094166;28;20036;-77
2022/11/17 06:41:22;;;;;;;3.42;0.93;;;10.30;99.90;;;;;;5095189;28;20070;-81
2022/11/17 06:43:48;;;;;;;2.60;0.87;;;10.30;99.90;;;;;;5092766;28;20059;-78
2022/11/17 06:46:13;;;;;;;0.77;0.70;;;10.30;99.90;;;;;;5093344;28;20103;-75
2022/11/17 06:48:39;;;;;;;2.33;0.60;;;10.40;99.90;;;;;;5095206;28;20016;-76
2022/11/17 06:51:05;;;;;;;1.83;0.83;;;10.40;99.90;;;;;;5087774;28;20020;-77
2022/11/17 06:53:32;;;;;;;0.80;0.70;;;10.40;99.90;;;;;;5092889;28;20106;-76
2022/11/17 06:56:09;;;;;;;1.95;0.70;;;10.40;99.90;;;;;;5094017;28;20027;-75
2022/11/17 06:58:36;;;;;;;;;;;10.40;99.90;;;;;;5091061;28;20043;-76
2022/11/17 07:01:03;;;;;;;;;;;10.40;99.90;;;;;;5089832;28;20381;-77
2022/11/17 07:03:28;;;;;;;1.15;0.52;;;10.40;99.90;;;;;;5103607;28;20011;-77
2022/11/17 07:05:58;;;;;;;2.93;0.57;;;10.40;99.90;;;;;;5093986;28;20055;-76
2022/11/17 07:08:24;;;;;;;9.77;1.02;;;10.40;99.90;;;;;;5090478;28;20131;-77
2022/11/17 07:10:53;;;;;;;5.53;0.80;;;10.40;99.90;;;;;;5075790;28;20514;-76
2022/11/17 07:13:21;;;;;;;6.75;0.98;;;10.50;99.90;;;;;;5092349;28;20031;-78
2022/11/17 07:15:48;;;;;;;1.65;0.73;;;10.40;99.90;;;;;;5089028;28;20422;-77
2022/11/17 07:18:16;;;;;;;4.97;0.90;;;10.50;99.90;;;;;;5094072;28;20035;-78
2022/11/17 07:20:42;;;;;;;3.60;0.95;;;10.40;99.90;;;;;;5093485;28;20377;-79
2022/11/17 07:23:07;;;;;;;7.37;0.93;;;10.50;99.90;;;;;;5092598;28;20111;-76
2022/11/17 07:25:33;;;;;;;3.08;0.85;;;10.50;99.90;;;;;;5090623;28;20426;-76
2022/11/17 07:27:59;;;;;;;3.47;1.10;;;10.50;99.90;;;;;;5093885;28;20032;-79
2022/11/17 07:30:25;;;;;;;4.87;1.40;;;10.50;99.90;;;;;;5092861;28;20468;-79
2022/11/17 07:32:51;;;;;;;4.85;1.77;;;10.50;99.90;;;;;;5091271;28;20039;-77
2022/11/17 07:35:18;;;;;;;1.87;1.23;;;10.50;99.90;;;;;;5092629;28;20040;-76
2022/11/17 07:37:43;;;;;;;4.03;1.55;;;10.50;99.90;;;;;;5090568;28;20052;-75
2022/11/17 07:40:09;;;;;;;2.83;1.52;;;10.40;99.90;;;;;;5094893;28;20067;-76
2022/11/17 07:42:35;;;;;;;5.17;1.50;;;10.40;99.90;;;;;;5092104;28;20024;-75
2022/11/17 07:45:01;;;;;;;7.87;1.83;;;10.40;99.90;;;;;;5091831;28;20031;-78
2022/11/17 07:47:26;;;;;;;2.20;1.30;;;10.40;99.90;;;;;;5090901;28;20473;-83
2022/11/17 07:49:52;;;;;;;3.23;1.47;;;10.40;99.90;;;;;;5091918;28;20311;-79
2022/11/17 07:52:18;;;;;;;3.23;1.40;;;10.40;99.90;;;;;;5089455;28;20027;-76
2022/11/17 07:54:43;;;;;;;7.10;1.20;;;10.40;99.90;;;;;;5093333;28;20016;-76
2022/11/17 07:57:09;;;;;;;8.27;1.05;;;10.40;99.90;;;;;;5086224;28;20318;-78
2022/11/17 07:59:35;;;;;;;4.23;1.40;;;10.30;99.90;;;;;;5091817;28;20186;-75
2022/11/17 08:02:00;;;;;;;4.83;1.73;;;10.30;99.90;;;;;;5091871;28;20017;-81
2022/11/17 08:04:26;;;;;;;4.77;1.00;;;10.30;99.90;;;;;;5096413;28;20458;-76
2022/11/17 08:06:52;;;;;;;4.70;0.97;;;10.30;99.90;;;;;;5092914;28;20083;-83
2022/11/17 08:09:17;;;;;;;3.67;0.70;;;10.30;99.90;;;;;;5090522;28;20032;-75
2022/11/17 08:11:43;;;;;;;2.30;1.00;;;10.30;99.90;;;;;;5097367;28;20077;-78
2022/11/17 08:14:09;;;;;;;5.30;1.33;;;10.30;99.90;;;;;;5096986;28;20070;-76
2022/11/17 08:16:35;;;;;;;2.22;1.40;;;10.30;99.90;;;;;;5095655;28;20036;-78
2022/11/17 08:19:03;;;;;;;1.53;1.10;;;10.20;99.90;;;;;;5095136;28;20020;-75
2022/11/17 08:21:28;;;;;;;3.33;0.68;;;10.20;99.90;;;;;;5095199;28;20031;-76
2022/11/17 08:23:55;;;;;;;1.30;1.20;;;10.20;99.90;;;;;;5094476;28;20032;-76
2022/11/17 08:26:23;;;;;;;3.22;0.90;;;10.10;99.90;;;;;;5094627;28;20316;-75
2022/11/17 08:28:49;;;;;;;2.58;1.20;;;10.10;99.90;;;;;;5097216;28;20370;-76
2022/11/17 08:31:15;;;;;;;2.20;0.93;;;10.10;99.90;;;;;;5089506;28;20041;-74
2022/11/17 08:33:41;;;;;;;1.73;0.97;;;10.10;99.90;;;;;;5097360;28;20091;-81
2022/11/17 08:36:07;;;;;;;3.77;1.13;;;10.10;99.90;;;;;;5089374;28;20078;-78
2022/11/17 08:38:33;;;;;;;2.43;0.90;;;10.10;99.90;;;;;;5095010;28;20431;-77
2022/11/17 08:41:02;;;;;;;1.60;0.80;;;10.10;99.90;;;;;;5093214;28;20311;-78
2022/11/17 08:43:28;;;;;;;7.88;1.10;;;10.10;99.90;;;;;;5095885;28;20024;-76
2022/11/17 08:45:54;;;;;;;4.40;0.80;;;10.10;99.90;;;;;;5096879;28;20062;-77
2022/11/17 08:48:20;;;;;;;2.30;1.20;;;10.00;99.90;;;;;;5096416;28;20060;-75
2022/11/17 08:50:46;;;;;;;4.15;1.42;;;10.00;99.90;;;;;;5091989;28;20115;-78
2022/11/17 08:53:17;;;;;;;2.20;1.00;;;10.00;99.90;;;;;;5096160;28;20429;-82
2022/11/17 08:55:44;;;;;;;4.75;1.02;;;10.00;99.90;;;;;;5094586;28;20096;-76
2022/11/17 08:58:11;;;;;;;2.28;1.30;;;10.00;99.90;;;;;;5096156;28;20020;-79
2022/11/17 09:00:37;;;;;;;1.80;1.10;;;10.00;99.90;;;;;;5097514;28;20330;-77
2022/11/17 09:03:07;;;;;;;2.97;1.10;;;10.00;99.90;;;;;;5096307;28;20032;-76
2022/11/17 09:05:37;;;;;;;1.88;1.10;;;10.10;99.90;;;;;;5088758;28;20024;-80
2022/11/17 09:08:04;;;;;;;2.47;1.00;;;10.10;99.90;;;;;;5086807;28;20024;-77
2022/11/17 09:10:29;;;;;;;2.53;0.98;;;10.10;99.90;;;;;;5090756;28;20426;-76
2022/11/17 09:12:56;;;;;;;1.70;0.77;;;10.10;99.90;;;;;;5093972;28;20040;-78
2022/11/17 09:15:22;;;;;;;2.67;1.10;;;10.10;99.90;;;;;;5095073;28;20039;-74
2022/11/17 09:17:48;;;;;;;2.70;1.00;;;10.10;99.90;;;;;;5094874;28;20330;-78
2022/11/17 09:20:15;;;;;;;3.63;0.80;;;10.10;99.90;;;;;;5094108;28;20020;-76
2022/11/17 09:22:41;;;;;;;2.13;0.98;;;10.10;99.90;;;;;;5096837;28;20492;-74
2022/11/17 09:25:07;;;;;;;7.97;5.80;;;10.10;99.90;;;;;;5096273;28;20036;-77
2022/11/17 09:27:33;;;;;;;10.77;7.75;;;10.00;99.90;;;;;;5096806;28;20363;-76
2022/11/17 09:29:59;;;;;;;7.37;4.63;;;10.10;99.90;;;;;;5095290;28;20067;-76
2022/11/17 09:32:25;;;;;;;11.00;4.97;;;10.10;99.90;;;;;;5096517;28;20020;-75
2022/11/17 09:34:51;;;;;;;10.13;8.47;;;10.10;99.90;;;;;;5095954;28;20513;-76
2022/11/17 09:37:17;;;;;;;9.33;6.33;;;10.10;99.90;;;;;;5096342;28;20028;-77
2022/11/17 09:39:43;;;;;;;11.43;8.02;;;10.10;99.90;;;;;;5096722;28;20032;-76
2022/11/17 09:42:13;;;;;;;3.47;3.17;;;10.10;99.90;;;;;;5095947;28;20028;-76
2022/11/17 09:44:46;;;;;;;4.22;2.13;;;10.10;99.90;;;;;;5091922;28;20028;-75
2022/11/17 09:47:24;;;;;;;5.50;3.65;;;10.10;99.90;;;;;;5090670;28;20059;-76
2022/11/17 09:49:56;;;;;;;3.70;2.42;;;10.00;99.90;;;;;;5088147;28;20029;-77
2022/11/17 09:52:52;;;;;;;5.90;2.33;;;10.10;99.90;;;;;;5090723;28;20066;-75
2022/11/17 09:55:52;;;;;;;4.03;3.08;;;10.10;99.90;;;;;;5086662;28;20040;-75
2022/11/17 09:58:53;;;;;;;6.10;2.92;;;10.00;99.90;;;;;;5092024;28;21395;-80
2022/11/17 10:01:20;;;;;;;6.28;1.23;;;10.00;99.90;;;;;;5086485;28;20411;-76
2022/11/17 10:03:50;;;;;;;1.35;0.95;;;10.00;99.90;;;;;;5090582;28;20064;-76
2022/11/17 10:06:20;;;;;;;3.50;1.00;;;10.00;99.90;;;;;;5094067;28;20656;-76
2022/11/17 10:08:48;;;;;;;2.25;0.77;;;10.00;99.90;;;;;;5094021;28;20304;-77
2022/11/17 10:11:31;;;;;;;6.97;2.17;;;10.00;99.90;;;;;;5094124;28;20108;-75
2022/11/17 10:14:18;;;;;;;2.40;0.82;;;10.00;99.90;;;;;;5089198;28;20032;-76
2022/11/17 10:16:49;;;;;;;5.47;1.05;;;10.00;99.90;;;;;;5092259;28;20036;-85
2022/11/17 10:19:28;;;;;;;2.67;1.00;;;10.10;99.90;;;;;;5093722;28;20017;-75
2022/11/17 10:22:00;;;;;;;4.50;1.23;;;10.10;99.90;;;;;;5092411;28;20032;-75
2022/11/17 10:24:41;;;;;;;5.20;1.25;;;10.10;99.90;;;;;;5092184;28;20442;-84
2022/11/17 10:27:25;;;;;;;2.92;1.05;;;10.10;99.90;;;;;;5090405;28;20032;-76
2022/11/17 10:30:01;;;;;;;2.95;1.40;;;10.10;99.90;;;;;;5089823;28;20031;-78
2022/11/17 10:32:35;;;;;;;4.65;1.42;;;10.10;99.90;;;;;;5078572;28;20024;-82
2022/11/17 10:35:13;;;;;;;1.20;0.85;;;10.10;99.90;;;;;;5093308;28;20510;-76
2022/11/17 10:37:50;;;;;;;4.10;1.45;;;10.10;99.90;;;;;;5093855;28;20028;-79
2022/11/17 10:40:21;;;;;;;0.85;0.80;;;10.10;99.90;;;;;;5083183;28;20024;-84
2022/11/17 10:43:16;;;;;;;1.38;0.98;;;10.10;99.90;;;;;;5093283;28;20028;-80
2022/11/17 10:45:50;;;;;;;5.10;1.20;;;10.10;99.90;;;;;;5086230;28;20248;-79
2022/11/17 10:48:33;;;;;;;3.25;1.20;;;10.10;99.90;;;;;;5093761;28;20035;-78
2022/11/17 10:51:20;;;;;;;4.60;1.00;;;10.10;99.90;;;;;;5075296;28;20093;-78
2022/11/17 10:54:16;;;;;;;1.17;1.08;;;10.10;99.90;;;;;;5088791;28;20024;-75
2022/11/17 10:56:48;;;;;;;2.13;1.17;;;10.10;99.90;;;;;;5092721;28;20078;-75
2022/11/17 10:59:32;;;;;;;3.42;1.30;;;10.10;99.90;;;;;;5090922;28;20024;-75
2022/11/17 11:02:28;;;;;;;4.35;1.10;;;10.10;99.90;;;;;;5090868;28;20045;-78
2022/11/17 11:05:11;;;;;;;3.55;1.00;;;10.10;99.90;;;;;;5087325;28;20043;-79
2022/11/17 11:07:38;;;;;;;25.83;9.93;;;10.10;99.90;;;;;;5091730;28;20028;-77
2022/11/17 11:10:03;;;;;;;17.67;8.70;;;10.10;99.90;;;;;;5094012;28;20038;-75
2022/11/17 11:12:40;;;;;;;13.73;8.37;;;10.10;99.90;;;;;;5090747;28;20478;-78
2022/11/17 11:15:12;;;;;;;;;;;10.10;99.90;;;;;;5089357;28;20954;-87
2022/11/17 11:17:38;;;;;;;8.68;6.90;;;10.00;99.90;;;;;;5083147;28;19920;-76
2022/11/17 11:20:06;;;;;;;7.73;4.33;;;10.00;99.90;;;;;;5089664;28;20035;-77
2022/11/17 11:23:03;;;;;;;10.48;8.18;;;10.00;99.90;;;;;;5089248;28;20315;-79
2022/11/17 11:25:54;;;;;;;12.20;6.10;;;10.00;99.90;;;;;;5087573;28;20153;-77
2022/11/17 11:28:47;;;;;;;111.82;54.15;;;10.00;99.90;;;;;;5085796;28;20024;-78
2022/11/17 11:31:27;;;;;;;18.92;8.38;;;10.00;99.90;;;;;;5090339;28;20024;-75
2022/11/17 11:33:57;;;;;;;9.40;5.22;;;10.00;99.90;;;;;;5090963;28;20315;-76
2022/11/17 11:36:40;;;;;;;5.93;2.97;;;10.00;99.90;;;;;;5085190;28;20044;-75
2022/11/17 11:39:30;;;;;;;15.40;3.88;;;9.90;99.90;;;;;;5088569;28;20021;-81
2022/11/17 11:42:08;;;;;;;27.83;12.63;;;9.90;99.90;;;;;;5092419;28;20111;-76
2022/11/17 11:44:56;;;;;;;23.48;10.57;;;9.90;99.90;;;;;;5091879;28;20020;-75
2022/11/17 11:47:43;;;;;;;51.20;20.98;;;9.90;99.90;;;;;;5086729;28;20052;-76
2022/11/17 11:50:32;;;;;;;9.88;4.13;;;9.90;99.90;;;;;;5090936;28;20027;-77
2022/11/17 11:53:10;;;;;;;19.88;8.40;;;9.90;99.90;;;;;;5091437;28;20028;-78
2022/11/17 11:55:38;;;;;;;35.72;13.15;;;9.90;99.90;;;;;;5091320;28;20039;-76
2022/11/17 11:58:21;;;;;;;15.10;7.45;;;9.90;99.90;;;;;;5090935;28;20373;-76
2022/11/17 12:00:50;;;;;;;13.18;6.25;;;9.90;99.90;;;;;;5103275;28;20032;-78
2022/11/17 12:03:24;;;;;;;10.73;5.30;;;9.90;99.90;;;;;;5091492;28;20060;-79
2022/11/17 12:06:40;;;;;;;15.73;8.13;;;9.90;99.90;;;;;;5091254;28;20032;-80
2022/11/17 12:09:22;;;;;;;9.70;4.55;;;9.90;99.90;;;;;;5086855;28;20119;-81
2022/11/17 12:11:59;;;;;;;19.98;5.43;;;9.90;99.90;;;;;;5092210;28;20328;-78
2022/11/17 12:14:26;;;;;;;16.75;6.25;;;9.80;99.90;;;;;;5091607;28;20031;-80
2022/11/17 12:17:12;;;;;;;36.13;15.38;;;9.80;99.90;;;;;;5088069;28;20032;-82
2022/11/17 12:19:54;;;;;;;58.50;35.75;;;9.80;99.90;;;;;;5092142;28;20052;-86
2022/11/17 12:23:03;;;;;;;23.33;15.35;;;9.80;99.90;;;;;;5090072;28;20028;-79
2022/11/17 12:25:32;;;;;;;10.88;9.07;;;9.80;99.90;;;;;;5084053;28;20323;-78
2022/11/17 12:27:57;;;;;;;23.40;18.85;;;9.80;99.90;;;;;;5087169;28;20046;-77
2022/11/17 12:30:32;;;;;;;14.23;9.90;;;9.80;99.90;;;;;;5088144;28;20110;-83
2022/11/17 12:33:07;;;;;;;6.63;3.83;;;9.80;99.90;;;;;;5092070;28;20056;-75
2022/11/17 12:35:40;;;;;;;5.47;4.35;;;9.80;99.90;;;;;;5089047;28;20370;-75
2022/11/17 12:38:15;;;;;;;10.32;7.53;;;9.80;99.90;;;;;;5090423;28;20036;-77
2022/11/17 12:40:49;;;;;;;11.45;3.00;;;9.80;99.90;;;;;;5090813;28;20074;-77
2022/11/17 12:43:15;;;;;;;7.35;3.10;;;9.80;99.90;;;;;;5092192;28;20406;-76
2022/11/17 12:46:02;;;;;;;12.40;7.90;;;9.80;99.90;;;;;;5089720;28;20032;-77
2022/11/17 12:48:37;;;;;;;6.95;3.45;;;9.80;99.90;;;;;;5090679;28;20056;-75
2022/11/17 12:51:31;;;;;;;7.22;2.00;;;9.80;99.90;;;;;;5092586;28;20464;-79
2022/11/17 12:54:06;;;;;;;4.43;2.53;;;9.80;99.90;;;;;;5086933;28;20052;-76
2022/11/17 12:56:51;;;;;;;12.32;3.80;;;9.80;99.90;;;;;;5093025;28;20039;-79
2022/11/17 12:59:22;;;;;;;15.63;5.97;;;9.90;99.90;;;;;;5095600;28;20024;-75
2022/11/17 13:02:15;;;;;;;9.20;5.47;;;9.90;99.90;;;;;;5095265;28;20032;-83
2022/11/17 13:04:50;;;;;;;21.38;9.88;;;9.90;99.90;;;;;;5091989;28;20040;-77
2022/11/17 13:07:20;;;;;;;11.60;2.85;;;9.90;99.90;;;;;;5090223;28;20047;-76
2022/11/17 13:09:52;;;;;;;10.38;1.73;;;9.90;99.90;;;;;;5093073;28;20039;-79
2022/11/17 13:12:23;;;;;;;9.27;2.33;;;9.90;99.90;;;;;;5087874;28;20025;-77
2022/11/17 13:14:57;;;;;;;6.78;3.08;;;9.90;99.90;;;;;;5088706;28;20430;-76
2022/11/17 13:17:42;;;;;;;10.40;3.13;;;9.90;99.90;;;;;;5095677;28;20431;-75
2022/11/17 13:20:28;;;;;;;17.38;5.47;;;9.90;99.90;;;;;;5088912;28;20020;-75
2022/11/17 13:23:21;;;;;;;3.97;2.08;;;9.80;99.90;;;;;;5095462;28;20101;-76
2022/11/17 13:25:47;;;;;;;14.70;6.68;;;9.90;99.90;;;;;;5091367;28;20040;-77
2022/11/17 13:28:30;;;;;;;9.32;3.80;;;9.80;99.90;;;;;;5109807;28;20055;-77
2022/11/17 13:30:58;;;;;;;8.60;4.25;;;9.80;99.90;;;;;;5094617;28;20040;-78
2022/11/17 13:33:25;;;;;;;43.28;17.77;;;9.80;99.90;;;;;;5092591;28;20423;-78
2022/11/17 13:36:09;;;;;;;;;;;9.80;99.90;;;;;;5095558;28;20031;-80
2022/11/17 13:38:35;;;;;;;4.93;2.03;;;9.80;99.90;;;;;;5095187;28;19922;-78